createdAt,value
2023-05-22T00:03:19.561Z,18.9
2023-05-22T00:09:25.377Z,18.8
2023-05-22T00:15:30.340Z,18.8
2023-05-22T00:21:36.273Z,18.8
2023-05-22T00:27:42.084Z,18.8
2023-05-22T00:33:47.648Z,18.8
2023-05-22T00:39:54.233Z,18.8
2023-05-22T00:45:59.292Z,18.8
2023-05-22T00:52:05.157Z,18.8
2023-05-22T00:58:11.191Z,18.8
2023-05-22T01:04:16.717Z,18.8
2023-05-22T01:10:22.895Z,18.8
2023-05-22T01:16:28.554Z,18.8
2023-05-22T01:22:34.305Z,18.8
2023-05-22T01:28:39.700Z,18.8
2023-05-22T01:34:45.045Z,18.8
2023-05-22T01:40:50.828Z,18.8
2023-05-22T01:46:55.971Z,18.8
2023-05-22T01:53:01.504Z,18.8
2023-05-22T01:59:07.285Z,18.7
2023-05-22T02:05:12.734Z,18.8
2023-05-22T02:11:19.485Z,18.7
2023-05-22T02:17:24.294Z,18.7
2023-05-22T02:23:29.965Z,18.7
2023-05-22T02:29:36.175Z,18.7
2023-05-22T02:35:41.007Z,18.7
2023-05-22T02:41:46.487Z,18.7
2023-05-22T02:47:52.607Z,18.7
2023-05-22T02:53:58.870Z,18.7
2023-05-22T03:00:04.125Z,18.7
2023-05-22T03:06:09.604Z,18.7
2023-05-22T03:12:15.190Z,18.7
2023-05-22T03:18:21.162Z,18.7
2023-05-22T03:24:30.426Z,18.7
2023-05-22T03:30:36.197Z,18.7
2023-05-22T03:36:42.604Z,18.7
2023-05-22T03:42:48.164Z,18.7
2023-05-22T03:48:53.588Z,18.7
2023-05-22T03:54:59.712Z,18.7
2023-05-22T04:01:04.548Z,18.7
2023-05-22T04:07:09.898Z,18.7
2023-05-22T04:13:15.823Z,18.6
2023-05-22T04:19:21.316Z,18.6
2023-05-22T04:25:27.589Z,18.6
2023-05-22T04:31:32.815Z,18.7
2023-05-22T04:37:38.926Z,18.7
2023-05-22T04:43:44.753Z,18.7
2023-05-22T04:49:50.154Z,18.7
2023-05-22T04:55:56.515Z,18.7
2023-05-22T05:02:01.890Z,18.7
2023-05-22T05:08:07.800Z,18.7
2023-05-22T05:14:13.666Z,18.7
2023-05-22T05:20:19.367Z,18.7
2023-05-22T05:26:25.561Z,18.7
2023-05-22T05:32:30.589Z,18.7
2023-05-22T05:38:36.693Z,18.7
2023-05-22T05:44:41.743Z,18.7
2023-05-22T05:50:47.854Z,18.7
2023-05-22T05:56:53.281Z,18.7
2023-05-22T06:02:58.107Z,18.7
2023-05-22T06:09:04.830Z,18.8
2023-05-22T06:15:10.152Z,18.8
2023-05-22T06:21:15.733Z,18.8
2023-05-22T06:27:20.924Z,18.8
2023-05-22T06:33:25.820Z,18.8
2023-05-22T06:39:32.391Z,18.8
2023-05-22T06:45:37.851Z,18.8
2023-05-22T06:51:43.786Z,18.8
2023-05-22T06:57:49.454Z,18.8
2023-05-22T07:03:55.550Z,18.8
2023-05-22T07:10:01.543Z,18.8
2023-05-22T07:16:07.797Z,18.8
2023-05-22T07:22:13.701Z,18.8
2023-05-22T07:28:19.722Z,18.8
2023-05-22T07:34:25.586Z,18.8
2023-05-22T07:40:33.089Z,18.9
2023-05-22T07:46:38.778Z,18.9
2023-05-22T07:52:45.245Z,18.9
2023-05-22T07:58:51.239Z,18.9
2023-05-22T08:04:57.248Z,18.9
2023-05-22T08:11:04.627Z,18.9
2023-05-22T08:17:11.722Z,18.9
2023-05-22T08:23:18.030Z,19
2023-05-22T08:29:23.856Z,19
2023-05-22T08:35:29.996Z,19
2023-05-22T08:41:36.178Z,19
2023-05-22T08:47:42.406Z,19
2023-05-22T08:53:48.771Z,19
2023-05-22T08:59:53.846Z,19
2023-05-22T09:06:00.156Z,19
2023-05-22T09:12:06.291Z,19
2023-05-22T09:18:12.309Z,19
2023-05-22T09:24:18.505Z,19.1
2023-05-22T09:30:24.534Z,19.1
2023-05-22T09:36:30.852Z,19.1
2023-05-22T09:42:37.040Z,19.1
2023-05-22T09:48:43.215Z,19.1
2023-05-22T09:54:49.223Z,19.1
2023-05-22T10:00:55.061Z,19.1
2023-05-22T10:07:00.982Z,19.1
2023-05-22T10:13:06.735Z,19.1
2023-05-22T10:19:12.773Z,19.1
2023-05-22T10:25:19.141Z,19.1
2023-05-22T10:31:25.161Z,19.1
2023-05-22T10:37:30.883Z,19.1
2023-05-22T10:43:37.285Z,19.1
2023-05-22T10:49:43.104Z,19.1
2023-05-22T10:55:49.444Z,19.1
2023-05-22T11:08:00.711Z,19.1
2023-05-22T11:14:06.384Z,19.2
2023-05-22T11:20:12.811Z,19.2
2023-05-22T11:26:19.375Z,19.2
2023-05-22T11:32:26.988Z,19.2
2023-05-22T11:38:32.827Z,19.2
2023-05-22T11:44:38.747Z,19.2
2023-05-22T11:50:44.460Z,19.2
2023-05-22T11:56:51.529Z,19.2
2023-05-22T12:02:57.190Z,19.2
2023-05-22T12:09:06.212Z,19.2
2023-05-22T12:15:12.539Z,19.2
2023-05-22T12:21:18.119Z,19.2
2023-05-22T12:27:23.877Z,19.2
2023-05-22T12:33:29.681Z,19.2
2023-05-22T12:39:35.229Z,19.2
2023-05-22T12:45:41.255Z,19.3
2023-05-22T12:51:47.211Z,19.3
2023-05-22T12:57:53.412Z,19.3
2023-05-22T13:03:59.289Z,19.3
2023-05-22T13:10:05.221Z,19.3
2023-05-22T13:16:10.992Z,19.3
2023-05-22T13:22:16.926Z,19.3
2023-05-22T13:28:23.150Z,19.3
2023-05-22T13:34:28.731Z,19.3
2023-05-22T13:40:34.116Z,19.3
2023-05-22T13:46:40.997Z,19.3
2023-05-22T13:52:46.483Z,19.3
2023-05-22T13:58:52.205Z,19.3
2023-05-22T14:04:57.627Z,19.3
2023-05-22T14:11:02.780Z,19.3
2023-05-22T14:17:08.574Z,19.3
2023-05-22T14:23:14.703Z,19.3
2023-05-22T14:29:20.478Z,19.3
2023-05-22T14:35:25.710Z,19.3
2023-05-22T14:41:30.991Z,19.3
2023-05-22T14:47:36.776Z,19.3
2023-05-22T14:53:42.570Z,19.3
2023-05-22T14:59:48.334Z,19.4
2023-05-22T15:05:53.556Z,19.3
2023-05-22T15:11:59.505Z,19.3
2023-05-22T15:18:04.960Z,19.4
2023-05-22T15:24:11.054Z,19.3
2023-05-22T15:30:16.252Z,19.4
2023-05-22T15:36:25.314Z,19.4
2023-05-22T15:42:31.231Z,19.4
2023-05-22T15:48:36.815Z,19.4
2023-05-22T15:54:42.458Z,19.4
2023-05-22T16:00:48.174Z,19.4
2023-05-22T16:06:53.794Z,19.4
2023-05-22T16:12:59.754Z,19.4
2023-05-22T16:19:04.763Z,19.4
2023-05-22T16:25:10.676Z,19.4
2023-05-22T16:31:19.079Z,19.4
2023-05-22T16:37:25.518Z,19.4
2023-05-22T16:43:30.732Z,19.4
2023-05-22T16:49:36.439Z,19.4
2023-05-22T16:55:42.361Z,19.4
2023-05-22T17:01:48.623Z,19.4
2023-05-22T17:07:54.028Z,19.4
2023-05-22T17:14:00.179Z,19.4
2023-05-22T17:20:05.617Z,19.4
2023-05-22T17:26:11.726Z,19.4
2023-05-22T17:32:16.814Z,19.4
2023-05-22T17:38:22.874Z,19.4
2023-05-22T17:44:28.733Z,19.4
2023-05-22T17:50:34.654Z,19.4
2023-05-22T17:56:40.459Z,19.4
2023-05-22T18:02:46.704Z,19.4
2023-05-22T18:08:52.618Z,19.4
2023-05-22T18:14:58.618Z,19.4
2023-05-22T18:21:04.536Z,19.4
2023-05-22T18:27:10.550Z,19.4
2023-05-22T18:33:15.979Z,19.4
2023-05-22T18:39:21.471Z,19.4
2023-05-22T18:45:26.902Z,19.4
2023-05-22T18:51:32.630Z,19.4
2023-05-22T18:57:38.846Z,19.4
2023-05-22T19:03:44.364Z,19.4
2023-05-22T19:09:50.576Z,19.4
2023-05-22T19:15:56.578Z,19.4
2023-05-22T19:22:02.526Z,19.4
2023-05-22T19:28:07.967Z,19.4
2023-05-22T19:34:13.878Z,19.4
2023-05-22T19:40:19.098Z,19.4
2023-05-22T19:46:25.278Z,19.4
2023-05-22T19:52:32.255Z,19.4
2023-05-22T19:58:37.818Z,19.4
2023-05-22T20:04:43.788Z,19.4
2023-05-22T20:10:49.974Z,19.4
2023-05-22T20:16:55.778Z,19.4
2023-05-22T20:23:01.755Z,19.4
2023-05-22T20:29:07.907Z,19.4
2023-05-22T20:35:14.130Z,19.4
2023-05-22T20:41:19.672Z,19.4
2023-05-22T20:47:25.755Z,19.4
2023-05-22T20:53:31.653Z,19.4
2023-05-22T20:59:37.438Z,19.4
2023-05-22T21:05:43.609Z,19.4
2023-05-22T21:11:49.382Z,19.4
2023-05-22T21:17:55.415Z,19.4
2023-05-22T21:24:01.591Z,19.4
2023-05-22T21:30:07.336Z,19.4
2023-05-22T21:36:12.599Z,19.4
2023-05-22T21:42:18.284Z,19.4
2023-05-22T21:48:24.374Z,19.4
2023-05-22T21:54:30.326Z,19.4
2023-05-22T22:00:36.643Z,19.4
2023-05-22T22:06:43.233Z,19.4
2023-05-22T22:12:48.692Z,19.4
2023-05-22T22:18:54.390Z,19.4
2023-05-22T22:25:00.989Z,19.4
2023-05-22T22:31:06.569Z,19.4
2023-05-22T22:37:12.942Z,19.4
2023-05-22T22:43:18.780Z,19.4
2023-05-22T22:49:24.728Z,19.4
2023-05-22T22:55:30.177Z,19.4
2023-05-22T23:01:35.908Z,19.3
2023-05-22T23:07:41.844Z,19.3
2023-05-22T23:13:47.739Z,19.4
2023-05-22T23:19:53.822Z,19.4
2023-05-22T23:25:59.442Z,19.3
2023-05-22T23:32:05.427Z,19.3
2023-05-22T23:38:10.943Z,19.3
2023-05-22T23:44:16.180Z,19.3
2023-05-22T23:50:22.291Z,19.3
2023-05-22T23:56:28.117Z,19.3
